createdAt,value
2023-05-19T00:01:57.724Z,96551.54
2023-05-19T00:04:32.750Z,96548.47
2023-05-19T00:07:08.752Z,96550.66
2023-05-19T00:09:43.824Z,96558.02
2023-05-19T00:12:18.904Z,96560.41
2023-05-19T00:14:54.736Z,96558.17
2023-05-19T00:17:29.151Z,96556.00
2023-05-19T00:20:07.808Z,96556.14
2023-05-19T00:22:41.470Z,96558.91
2023-05-19T00:25:15.469Z,96556.88
2023-05-19T00:27:49.064Z,96550.17
2023-05-19T00:30:23.553Z,96562.89
2023-05-19T00:32:57.965Z,96574.76
2023-05-19T00:35:32.360Z,96570.25
2023-05-19T00:38:06.297Z,96564.63
2023-05-19T00:40:43.507Z,96562.95
2023-05-19T00:43:17.338Z,96567.40
2023-05-19T00:45:51.107Z,96572.13
2023-05-19T00:48:24.790Z,96564.84
2023-05-19T00:51:04.910Z,96559.64
2023-05-19T00:53:39.244Z,96561.81
2023-05-19T00:56:13.329Z,96561.77
2023-05-19T00:58:47.706Z,96567.04
2023-05-19T01:01:22.006Z,96570.52
2023-05-19T01:03:57.413Z,96564.71
2023-05-19T01:06:31.601Z,96555.16
2023-05-19T01:09:05.196Z,96554.02
2023-05-19T01:11:38.973Z,96559.10
2023-05-19T01:14:12.736Z,96562.27
2023-05-19T01:16:52.259Z,96563.73
2023-05-19T01:19:52.850Z,96568.45
2023-05-19T01:22:43.348Z,96566.43
2023-05-19T01:25:32.987Z,96565.77
2023-05-19T01:28:26.152Z,96563.08
2023-05-19T01:31:01.839Z,96562.13
2023-05-19T01:33:36.867Z,96564.38
2023-05-19T01:36:12.011Z,96562.61
2023-05-19T01:38:46.807Z,96569.05
2023-05-19T01:41:21.295Z,96576.21
2023-05-19T01:43:57.640Z,96580.91
2023-05-19T01:46:31.428Z,96579.11
2023-05-19T01:49:05.556Z,96581.36
2023-05-19T01:51:41.988Z,96583.66
2023-05-19T01:54:15.548Z,96586.66
2023-05-19T01:56:54.898Z,96587.66
2023-05-19T01:59:39.437Z,96592.19
2023-05-19T02:02:18.859Z,96599.52
2023-05-19T02:04:56.581Z,96599.63
2023-05-19T02:07:37.499Z,96599.09
2023-05-19T02:10:16.880Z,96596.77
2023-05-19T02:12:51.928Z,96590.56
2023-05-19T02:15:29.017Z,96595.00
2023-05-19T02:18:05.415Z,96601.46
2023-05-19T02:20:39.036Z,96607.52
2023-05-19T02:23:12.615Z,96610.02
2023-05-19T02:25:47.109Z,96605.05
2023-05-19T02:28:21.148Z,96603.55
2023-05-19T02:30:54.878Z,96609.18
2023-05-19T02:33:31.566Z,96610.04
2023-05-19T02:36:05.281Z,96614.86
2023-05-19T02:38:39.049Z,96618.71
2023-05-19T02:41:12.870Z,96621.84
2023-05-19T02:43:46.741Z,96620.04
2023-05-19T02:46:20.402Z,96622.20
2023-05-19T02:48:54.944Z,96623.44
2023-05-19T02:51:29.415Z,96615.69
2023-05-19T02:54:04.196Z,96618.23
2023-05-19T02:56:37.897Z,96621.31
2023-05-19T02:59:11.603Z,96626.32
2023-05-19T03:01:45.292Z,96627.52
2023-05-19T03:04:20.520Z,96623.95
2023-05-19T03:06:54.643Z,96621.98
2023-05-19T03:09:28.473Z,96621.56
2023-05-19T03:12:04.711Z,96624.67
2023-05-19T03:14:39.504Z,96625.38
2023-05-19T03:17:13.766Z,96627.27
2023-05-19T03:19:47.376Z,96628.21
2023-05-19T03:22:21.509Z,96623.77
2023-05-19T03:24:55.005Z,96627.29
2023-05-19T03:27:28.899Z,96620.61
2023-05-19T03:30:06.257Z,96621.08
2023-05-19T03:32:40.632Z,96623.19
2023-05-19T03:35:14.241Z,96622.81
2023-05-19T03:37:50.626Z,96625.84
2023-05-19T03:40:24.443Z,96624.04
2023-05-19T03:42:58.615Z,96615.54
2023-05-19T03:45:32.358Z,96616.00
2023-05-19T03:48:06.506Z,96608.09
2023-05-19T03:50:40.206Z,96600.98
2023-05-19T03:53:14.476Z,96600.27
2023-05-19T03:55:49.200Z,96595.98
2023-05-19T03:58:22.877Z,96592.94
2023-05-19T04:00:56.734Z,96592.10
2023-05-19T04:03:30.444Z,96585.13
2023-05-19T04:06:04.394Z,96594.95
2023-05-19T04:08:38.269Z,96594.64
2023-05-19T04:11:12.186Z,96592.21
2023-05-19T04:13:45.987Z,96595.34
2023-05-19T04:16:20.183Z,96590.57
2023-05-19T04:18:53.837Z,96591.90
2023-05-19T04:21:27.900Z,96584.70
2023-05-19T04:24:01.666Z,96581.68
2023-05-19T04:26:35.308Z,96587.17
2023-05-19T04:29:11.129Z,96587.91
2023-05-19T04:31:45.543Z,96592.16
2023-05-19T04:34:20.438Z,96591.28
2023-05-19T04:36:55.916Z,96587.98
2023-05-19T04:39:30.201Z,96586.98
2023-05-19T04:42:04.476Z,96595.14
2023-05-19T04:44:38.419Z,96594.98
2023-05-19T04:47:15.471Z,96582.69
2023-05-19T04:49:49.221Z,96581.33
2023-05-19T04:52:23.381Z,96589.27
2023-05-19T04:54:58.991Z,96593.15
2023-05-19T04:57:32.800Z,96600.04
2023-05-19T05:00:09.421Z,96605.52
2023-05-19T05:02:45.776Z,96607.41
2023-05-19T05:05:20.060Z,96604.69
2023-05-19T05:07:54.449Z,96605.75
2023-05-19T05:10:28.556Z,96600.95
2023-05-19T05:13:03.250Z,96595.52
2023-05-19T05:15:40.051Z,96595.16
2023-05-19T05:18:15.483Z,96595.56
2023-05-19T05:20:50.915Z,96595.77
2023-05-19T05:23:23.282Z,96590.91
2023-05-19T05:25:58.134Z,96591.08
2023-05-19T05:28:31.823Z,96595.16
2023-05-19T05:31:06.192Z,96594.31
2023-05-19T05:33:40.679Z,96594.71
2023-05-19T05:36:14.600Z,96595.99
2023-05-19T05:38:49.047Z,96596.67
2023-05-19T05:41:25.258Z,96601.89
2023-05-19T05:43:59.302Z,96599.82
2023-05-19T05:46:33.761Z,96589.02
2023-05-19T05:49:10.498Z,96582.23
2023-05-19T05:51:57.940Z,96580.55
2023-05-19T05:54:40.146Z,96587.24
2023-05-19T05:57:18.117Z,96588.48
2023-05-19T05:59:51.771Z,96589.45
2023-05-19T06:02:28.565Z,96589.09
2023-05-19T06:05:03.022Z,96589.45
2023-05-19T06:07:36.618Z,96582.20
2023-05-19T06:10:14.331Z,96583.36
2023-05-19T06:12:47.955Z,96580.02
2023-05-19T06:15:21.577Z,96581.81
2023-05-19T06:17:55.317Z,96583.34
2023-05-19T06:20:29.123Z,96576.34
2023-05-19T06:23:05.108Z,96569.59
2023-05-19T06:25:38.090Z,96564.84
2023-05-19T06:28:11.803Z,96570.81
2023-05-19T06:30:45.529Z,96574.86
2023-05-19T06:33:22.367Z,96575.36
2023-05-19T06:35:56.204Z,96573.02
2023-05-19T06:38:29.824Z,96571.02
2023-05-19T06:41:03.536Z,96570.38
2023-05-19T06:43:37.854Z,96569.73
2023-05-19T06:46:13.449Z,96566.67
2023-05-19T06:48:47.404Z,96561.73
2023-05-19T06:51:23.953Z,96562.39
2023-05-19T06:53:57.822Z,96559.14
2023-05-19T06:56:35.254Z,96557.89
2023-05-19T06:59:08.876Z,96556.23
2023-05-19T07:01:42.427Z,96554.67
2023-05-19T07:04:16.840Z,96552.56
2023-05-19T07:06:50.746Z,96552.15
2023-05-19T07:09:25.850Z,96546.97
2023-05-19T07:12:02.006Z,96550.23
2023-05-19T07:14:37.110Z,96556.48
2023-05-19T07:17:12.194Z,96555.61
2023-05-19T07:19:48.168Z,96556.82
2023-05-19T07:22:24.727Z,96558.04
2023-05-19T07:24:57.495Z,96551.77
2023-05-19T07:27:32.697Z,96553.76
2023-05-19T07:30:07.006Z,96549.98
2023-05-19T07:32:42.266Z,96547.23
2023-05-19T07:35:15.922Z,96548.30
2023-05-19T07:37:49.685Z,96542.73
2023-05-19T07:40:23.263Z,96539.48
2023-05-19T07:42:56.986Z,96535.38
2023-05-19T07:45:31.046Z,96530.13
2023-05-19T07:48:04.874Z,96531.00
2023-05-19T07:50:41.131Z,96532.04
2023-05-19T07:53:14.876Z,96532.71
2023-05-19T07:55:48.689Z,96532.85
2023-05-19T07:58:22.882Z,96532.45
2023-05-19T08:00:59.009Z,96531.83
2023-05-19T08:03:33.312Z,96522.06
2023-05-19T08:06:08.163Z,96524.28
2023-05-19T08:08:43.105Z,96527.33
2023-05-19T08:11:17.656Z,96528.08
2023-05-19T08:13:51.415Z,96529.50
2023-05-19T08:16:25.725Z,96525.06
2023-05-19T08:19:03.334Z,96516.77
2023-05-19T08:21:39.018Z,96524.15
2023-05-19T08:24:13.526Z,96523.98
2023-05-19T08:26:48.009Z,96523.42
2023-05-19T08:29:21.583Z,96523.55
2023-05-19T08:31:55.862Z,96517.30
2023-05-19T08:34:29.409Z,96516.55
2023-05-19T08:37:03.625Z,96514.86
2023-05-19T08:39:37.380Z,96510.19
2023-05-19T08:42:14.641Z,96507.47
2023-05-19T08:44:48.550Z,96504.43
2023-05-19T08:47:23.275Z,96497.90
2023-05-19T08:50:04.410Z,96494.88
2023-05-19T08:52:49.536Z,96487.45
2023-05-19T08:55:31.723Z,96487.09
2023-05-19T08:58:06.634Z,96489.98
2023-05-19T09:00:42.133Z,96490.39
2023-05-19T09:03:22.876Z,96494.05
2023-05-19T09:05:57.292Z,96481.64
2023-05-19T09:08:31.108Z,96482.13
2023-05-19T09:11:04.773Z,96478.61
2023-05-19T09:13:38.762Z,96475.35
2023-05-19T09:16:13.262Z,96472.39
2023-05-19T09:18:58.309Z,96468.34
2023-05-19T09:21:35.591Z,96463.67
2023-05-19T09:24:11.594Z,96462.21
2023-05-19T09:26:47.192Z,96465.50
2023-05-19T09:29:21.533Z,96457.88
2023-05-19T09:31:56.444Z,96451.33
2023-05-19T09:34:30.179Z,96443.91
2023-05-19T09:37:04.496Z,96440.76
2023-05-19T09:39:38.626Z,96436.02
2023-05-19T09:42:12.272Z,96439.16
2023-05-19T09:44:46.203Z,96435.15
2023-05-19T09:47:19.900Z,96431.09
2023-05-19T09:49:53.361Z,96427.05
2023-05-19T09:52:45.033Z,96422.34
2023-05-19T09:55:23.613Z,96424.59
2023-05-19T09:58:00.288Z,96419.33
2023-05-19T10:00:35.580Z,96418.73
2023-05-19T10:03:10.011Z,96416.80
2023-05-19T10:05:43.827Z,96417.66
2023-05-19T10:08:18.357Z,96418.70
2023-05-19T10:10:52.295Z,96413.59
2023-05-19T10:13:26.660Z,96412.79
2023-05-19T10:16:01.668Z,96407.91
2023-05-19T10:18:39.614Z,96408.58
2023-05-19T10:21:14.871Z,96409.61
2023-05-19T10:23:49.052Z,96403.19
2023-05-19T10:26:23.619Z,96399.96
2023-05-19T10:28:58.185Z,96398.17
2023-05-19T10:31:36.642Z,96394.65
2023-05-19T10:34:30.227Z,96384.10
2023-05-19T10:37:13.607Z,96381.73
2023-05-19T10:39:47.877Z,96376.10
2023-05-19T10:42:31.404Z,96374.96
2023-05-19T10:45:11.590Z,96379.31
2023-05-19T10:47:46.253Z,96369.39
2023-05-19T10:50:23.713Z,96359.49
2023-05-19T10:53:00.630Z,96352.90
2023-05-19T10:55:53.147Z,96346.63
2023-05-19T10:58:52.493Z,96342.01
2023-05-19T11:01:26.888Z,96339.45
2023-05-19T11:04:06.099Z,96334.34
2023-05-19T11:06:41.681Z,96325.66
2023-05-19T11:09:22.469Z,96321.16
2023-05-19T11:12:08.185Z,96316.67
2023-05-19T11:14:42.049Z,96312.27
2023-05-19T11:17:18.331Z,96309.52
2023-05-19T11:19:59.976Z,96324.31
2023-05-19T11:22:36.706Z,96326.25
2023-05-19T11:25:11.176Z,96330.10
2023-05-19T11:27:45.690Z,96326.47
2023-05-19T11:30:21.717Z,96323.14
2023-05-19T11:32:54.219Z,96325.59
2023-05-19T11:35:28.254Z,96329.21
2023-05-19T11:38:04.921Z,96332.70
2023-05-19T11:40:38.816Z,96330.64
2023-05-19T11:43:12.796Z,96340.94
2023-05-19T11:45:47.507Z,96346.23
2023-05-19T11:48:24.684Z,96352.32
2023-05-19T11:50:58.517Z,96356.10
2023-05-19T11:53:34.037Z,96361.27
2023-05-19T11:56:09.682Z,96362.27
2023-05-19T11:58:43.273Z,96359.13
2023-05-19T12:01:17.049Z,96357.37
2023-05-19T12:03:50.951Z,96355.95
2023-05-19T12:06:24.805Z,96352.78
2023-05-19T12:09:00.225Z,96345.30
2023-05-19T12:11:35.631Z,96323.91
2023-05-19T12:14:10.047Z,96304.46
2023-05-19T12:16:45.424Z,96289.34
2023-05-19T12:19:20.754Z,96264.73
2023-05-19T12:21:54.608Z,96246.05
2023-05-19T12:24:28.738Z,96231.27
2023-05-19T12:27:11.855Z,96220.37
2023-05-19T12:29:50.906Z,96224.31
2023-05-19T12:32:27.206Z,96219.67
2023-05-19T12:34:59.280Z,96211.98
2023-05-19T12:37:33.896Z,96208.45
2023-05-19T12:40:09.228Z,96209.41
2023-05-19T12:42:49.397Z,96230.95
2023-05-19T12:45:26.251Z,96250.19
2023-05-19T12:48:00.618Z,96258.43
2023-05-19T12:50:36.382Z,96264.23
2023-05-19T12:53:12.588Z,96265.21
2023-05-19T12:55:47.320Z,96251.20
2023-05-19T12:58:24.657Z,96231.75
2023-05-19T13:01:02.619Z,96208.09
2023-05-19T13:03:49.603Z,96207.11
2023-05-19T13:06:23.788Z,96215.88
2023-05-19T13:08:57.642Z,96242.80
2023-05-19T13:11:31.463Z,96289.42
2023-05-19T13:14:05.554Z,96309.73
2023-05-19T13:16:43.240Z,96308.84
2023-05-19T13:19:24.933Z,96308.23
2023-05-19T13:21:59.162Z,96301.95
2023-05-19T13:24:34.772Z,96302.89
2023-05-19T13:27:11.809Z,96296.42
2023-05-19T13:29:45.794Z,96290.92
2023-05-19T13:32:20.708Z,96295.48
2023-05-19T13:34:54.607Z,96290.79
2023-05-19T13:37:28.942Z,96295.14
2023-05-19T13:40:02.684Z,96293.10
2023-05-19T13:42:37.293Z,96299.29
2023-05-19T13:45:13.301Z,96312.08
2023-05-19T13:47:46.815Z,96329.58
2023-05-19T13:50:20.483Z,96332.71
2023-05-19T13:52:54.322Z,96325.94
2023-05-19T13:55:28.206Z,96329.45
2023-05-19T13:58:01.827Z,96345.05
2023-05-19T14:00:36.565Z,96348.89
2023-05-19T14:03:10.652Z,96359.98
2023-05-19T14:05:44.607Z,96367.08
2023-05-19T14:08:18.207Z,96377.36
2023-05-19T14:10:52.988Z,96390.50
2023-05-19T14:13:34.714Z,96395.41
2023-05-19T14:16:13.764Z,96393.55
2023-05-19T14:18:48.905Z,96396.92
2023-05-19T14:21:22.463Z,96410.57
2023-05-19T14:23:55.996Z,96417.30
2023-05-19T14:26:29.692Z,96431.45
2023-05-19T14:29:04.861Z,96439.77
2023-05-19T14:31:38.768Z,96451.21
2023-05-19T14:34:18.182Z,96468.95
2023-05-19T14:36:52.194Z,96494.95
2023-05-19T14:39:25.686Z,96512.66
2023-05-19T14:41:59.998Z,96526.66
2023-05-19T14:44:35.888Z,96542.35
2023-05-19T14:47:11.788Z,96555.16
2023-05-19T14:49:46.075Z,96564.70
2023-05-19T14:52:21.874Z,96569.27
2023-05-19T14:54:56.489Z,96570.98
2023-05-19T14:57:30.348Z,96575.25
2023-05-19T15:00:04.124Z,96587.57
2023-05-19T15:02:37.878Z,96600.45
2023-05-19T15:05:13.421Z,96606.61
2023-05-19T15:07:47.457Z,96613.48
2023-05-19T15:10:21.450Z,96626.09
2023-05-19T15:12:55.086Z,96630.24
2023-05-19T15:15:28.513Z,96635.58
2023-05-19T15:18:02.100Z,96641.40
2023-05-19T15:20:36.478Z,96650.73
2023-05-19T15:23:10.440Z,96660.15
2023-05-19T15:25:45.830Z,96671.95
2023-05-19T15:28:19.391Z,96677.54
2023-05-19T15:30:57.376Z,96682.63
2023-05-19T15:33:31.441Z,96688.52
2023-05-19T15:36:07.876Z,96697.59
2023-05-19T15:38:42.916Z,96694.48
2023-05-19T15:41:16.572Z,96699.29
2023-05-19T15:43:50.130Z,96702.40
2023-05-19T15:46:23.762Z,96701.80
2023-05-19T15:48:57.499Z,96699.98
2023-05-19T15:51:31.967Z,96692.61
2023-05-19T15:54:07.866Z,96691.16
2023-05-19T15:56:41.472Z,96691.89
2023-05-19T15:59:15.036Z,96697.98
2023-05-19T16:01:52.083Z,96699.19
2023-05-19T16:04:26.779Z,96700.08
2023-05-19T16:07:00.453Z,96698.48
2023-05-19T16:09:34.508Z,96696.92
2023-05-19T16:12:09.144Z,96707.56
2023-05-19T16:14:42.828Z,96712.45
2023-05-19T16:17:19.612Z,96714.52
2023-05-19T16:19:53.525Z,96716.30
2023-05-19T16:22:27.593Z,96715.60
2023-05-19T16:25:01.130Z,96712.88
2023-05-19T16:27:34.816Z,96712.38
2023-05-19T16:30:09.999Z,96705.37
2023-05-19T16:32:43.923Z,96705.64
2023-05-19T16:35:17.525Z,96704.80
2023-05-19T16:37:52.098Z,96705.80
2023-05-19T16:40:25.732Z,96705.04
2023-05-19T16:43:00.275Z,96704.48
2023-05-19T16:45:34.009Z,96712.98
2023-05-19T16:48:08.423Z,96718.61
2023-05-19T16:50:42.141Z,96717.27
2023-05-19T16:53:16.169Z,96718.40
2023-05-19T16:55:49.988Z,96722.09
2023-05-19T16:58:23.786Z,96725.38
2023-05-19T17:00:59.256Z,96720.95
2023-05-19T17:03:33.777Z,96719.59
2023-05-19T17:06:08.969Z,96719.34
2023-05-19T17:08:42.939Z,96718.70
2023-05-19T17:11:19.753Z,96718.85
2023-05-19T17:13:53.389Z,96714.65
2023-05-19T17:16:27.400Z,96711.94
2023-05-19T17:19:01.303Z,96707.72
2023-05-19T17:21:34.909Z,96702.85
2023-05-19T17:24:09.314Z,96698.48
2023-05-19T17:26:43.017Z,96698.11
2023-05-19T17:29:16.570Z,96698.39
2023-05-19T17:31:50.370Z,96690.98
2023-05-19T17:34:24.042Z,96684.11
2023-05-19T17:36:57.865Z,96679.73
2023-05-19T17:39:31.433Z,96682.46
2023-05-19T17:42:08.017Z,96686.77
2023-05-19T17:44:43.818Z,96691.50
2023-05-19T17:47:17.497Z,96699.44
2023-05-19T17:49:53.293Z,96708.58
2023-05-19T17:52:28.191Z,96722.24
2023-05-19T17:55:03.016Z,96722.45
2023-05-19T17:57:42.883Z,96723.91
2023-05-19T18:00:18.072Z,96723.80
2023-05-19T18:02:53.575Z,96727.94
2023-05-19T18:05:28.568Z,96737.33
2023-05-19T18:08:05.530Z,96745.79
2023-05-19T18:10:41.156Z,96750.19
2023-05-19T18:13:16.158Z,96748.59
2023-05-19T18:15:49.910Z,96761.52
2023-05-19T18:18:23.687Z,96763.10
2023-05-19T18:20:57.608Z,96759.98
2023-05-19T18:23:31.781Z,96755.41
2023-05-19T18:26:05.295Z,96761.33
2023-05-19T18:28:39.199Z,96763.98
2023-05-19T18:31:19.890Z,96763.10
2023-05-19T18:33:54.037Z,96767.55
2023-05-19T18:36:28.211Z,96765.52
2023-05-19T18:39:04.994Z,96767.52
2023-05-19T18:41:41.786Z,96771.66
2023-05-19T18:44:15.911Z,96769.63
2023-05-19T18:46:50.025Z,96773.50
2023-05-19T18:49:25.310Z,96767.55
2023-05-19T18:51:58.973Z,96761.02
2023-05-19T18:54:32.992Z,96752.10
2023-05-19T18:57:07.090Z,96746.75
2023-05-19T18:59:41.266Z,96743.60
2023-05-19T19:02:16.846Z,96742.75
2023-05-19T19:04:51.688Z,96745.23
2023-05-19T19:07:25.824Z,96745.05
2023-05-19T19:10:01.777Z,96743.02
2023-05-19T19:12:36.489Z,96752.34
2023-05-19T19:15:15.629Z,96755.40
2023-05-19T19:17:50.671Z,96755.98
2023-05-19T19:20:24.526Z,96756.27
2023-05-19T19:23:02.268Z,96755.42
2023-05-19T19:25:38.087Z,96753.58
2023-05-19T19:28:12.183Z,96745.13
2023-05-19T19:30:45.883Z,96739.91
2023-05-19T19:33:20.916Z,96731.46
2023-05-19T19:35:54.854Z,96729.77
2023-05-19T19:38:30.748Z,96726.70
2023-05-19T19:41:04.707Z,96726.98
2023-05-19T19:43:38.487Z,96734.06
2023-05-19T19:46:20.111Z,96740.13
2023-05-19T19:48:53.788Z,96738.91
2023-05-19T19:51:28.723Z,96732.61
2023-05-19T19:54:02.877Z,96729.17
2023-05-19T19:56:36.639Z,96727.83
2023-05-19T19:59:11.700Z,96726.60
2023-05-19T20:01:45.630Z,96731.21
2023-05-19T20:04:19.504Z,96732.09
2023-05-19T20:06:53.327Z,96730.13
2023-05-19T20:09:30.174Z,96731.65
2023-05-19T20:12:04.354Z,96730.39
2023-05-19T20:14:40.452Z,96727.06
2023-05-19T20:17:14.131Z,96723.10
2023-05-19T20:19:50.052Z,96718.84
2023-05-19T20:22:23.662Z,96718.59
2023-05-19T20:24:58.113Z,96718.34
2023-05-19T20:27:31.833Z,96716.58
2023-05-19T20:30:05.607Z,96715.10
2023-05-19T20:32:40.233Z,96714.45
2023-05-19T20:35:15.485Z,96718.39
2023-05-19T20:37:49.872Z,96718.98
2023-05-19T20:40:23.981Z,96719.08
2023-05-19T20:42:57.823Z,96723.41
2023-05-19T20:45:33.988Z,96724.73
2023-05-19T20:48:08.381Z,96724.71
2023-05-19T20:50:43.236Z,96721.20
2023-05-19T20:53:20.864Z,96716.64
2023-05-19T20:55:56.629Z,96714.19
2023-05-19T20:58:32.874Z,96716.33
2023-05-19T21:01:06.778Z,96719.23
2023-05-19T21:03:40.811Z,96725.81
2023-05-19T21:06:14.853Z,96732.31
2023-05-19T21:08:49.051Z,96733.13
2023-05-19T21:11:24.799Z,96737.96
2023-05-19T21:13:58.469Z,96737.33
2023-05-19T21:16:32.539Z,96737.77
2023-05-19T21:19:06.976Z,96736.89
2023-05-19T21:21:43.388Z,96735.33
2023-05-19T21:24:17.426Z,96735.77
2023-05-19T21:26:51.952Z,96734.56
2023-05-19T21:29:26.357Z,96727.95
2023-05-19T21:32:00.228Z,96726.46
2023-05-19T21:34:33.818Z,96723.26
2023-05-19T21:37:07.853Z,96723.83
2023-05-19T21:39:41.548Z,96726.21
2023-05-19T21:42:15.497Z,96724.67
2023-05-19T21:44:49.022Z,96724.12
2023-05-19T21:47:22.512Z,96723.69
2023-05-19T21:49:56.141Z,96720.23
2023-05-19T21:52:29.976Z,96715.86
2023-05-19T21:55:03.561Z,96715.52
2023-05-19T21:57:38.657Z,96717.27
2023-05-19T22:00:14.285Z,96712.41
2023-05-19T22:02:47.895Z,96712.55
2023-05-19T22:05:21.828Z,96708.45
2023-05-19T22:07:55.599Z,96704.67
2023-05-19T22:10:29.632Z,96699.34
2023-05-19T22:13:03.477Z,96697.21
2023-05-19T22:15:37.088Z,96688.86
2023-05-19T22:18:10.593Z,96680.89
2023-05-19T22:20:44.296Z,96679.88
2023-05-19T22:23:17.818Z,96675.13
2023-05-19T22:25:51.859Z,96671.30
2023-05-19T22:28:25.494Z,96667.17
2023-05-19T22:30:58.902Z,96662.80
2023-05-19T22:33:32.820Z,96660.95
2023-05-19T22:36:08.909Z,96646.55
2023-05-19T22:38:42.939Z,96643.51
2023-05-19T22:41:16.489Z,96644.04
2023-05-19T22:43:50.017Z,96644.16
2023-05-19T22:46:23.688Z,96649.98
2023-05-19T22:48:57.211Z,96646.43
2023-05-19T22:51:31.921Z,96645.39
2023-05-19T22:54:05.916Z,96645.11
2023-05-19T22:56:39.513Z,96641.33
2023-05-19T22:59:14.676Z,96643.03
2023-05-19T23:01:48.283Z,96646.48
2023-05-19T23:04:22.248Z,96648.29
2023-05-19T23:06:57.931Z,96646.38
2023-05-19T23:09:31.548Z,96645.39
2023-05-19T23:12:05.497Z,96639.34
2023-05-19T23:14:40.656Z,96637.42
2023-05-19T23:17:14.411Z,96630.65
2023-05-19T23:19:48.716Z,96620.40
2023-05-19T23:22:22.445Z,96612.42
2023-05-19T23:24:56.345Z,96604.05
2023-05-19T23:27:29.954Z,96594.02
2023-05-19T23:30:03.733Z,96592.35
2023-05-19T23:32:37.790Z,96591.15
2023-05-19T23:35:16.130Z,96587.41
2023-05-19T23:37:50.267Z,96583.45
2023-05-19T23:40:24.300Z,96580.88
2023-05-19T23:42:58.337Z,96574.42
2023-05-19T23:45:32.097Z,96570.27
2023-05-19T23:48:06.091Z,96563.50
2023-05-19T23:50:39.997Z,96567.10
2023-05-19T23:53:13.892Z,96576.11
2023-05-19T23:55:48.652Z,96575.38
2023-05-19T23:58:23.812Z,96569.13
